Terminal Aerodrome Forecast
Issued by NWS

Home | Current Version | Previous Version | Text Only | Print | Product List | Glossary On
Versions: 1 2 3 4 5 6 7 8 9 10 11 12 13 14 15
000
FTUS43 KDVN 241120
TAFCID
TAF
KCID 241120Z 2412/2512 30010KT P6SM SKC
     FM241700 30017G23KT P6SM SCT050
     FM250000 29010KT P6SM FEW050=

USA.gov is the U.S. government's official web portal to all federal, state and local government web resources and services.